Time;durP1;ratioP1;P1;durP2;ratioP2;P2;SDS_P1;SDS_P2;PMS_P1;PMS_P2;Temp;Humidity;BMP_temperature;BMP_pressure;BME280_temperature;BME280_humidity;BME280_pressure;Samples;Min_cycle;Max_cycle;Signal;HPM_P1;HPM_P2
2022/09/21 00:02:15;;;;;;;1999.90;999.90;;;9.70;99.90;;;;;;5185161;28;20032;-74
2022/09/21 00:04:46;;;;;;;1999.90;999.90;;;9.60;99.90;;;;;;5167728;28;20491;-73
2022/09/21 00:07:17;;;;;;;1999.90;999.90;;;10.00;99.90;;;;;;5167670;28;20028;-74
2022/09/21 00:09:48;;;;;;;1999.90;999.90;;;10.00;99.90;;;;;;5185193;28;20030;-73
2022/09/21 00:12:20;;;;;;;1999.90;999.90;;;9.80;99.90;;;;;;5185143;28;20117;-73
2022/09/21 00:14:51;;;;;;;1999.90;999.90;;;9.60;99.90;;;;;;5185060;28;20037;-73
2022/09/21 00:17:22;;;;;;;1999.90;999.90;;;9.60;99.90;;;;;;5185260;28;20025;-73
2022/09/21 00:19:52;;;;;;;1999.90;999.90;;;9.70;99.90;;;;;;5185041;28;20033;-74
2022/09/21 00:22:23;;;;;;;1999.90;999.90;;;9.70;99.90;;;;;;5184990;28;20026;-73
2022/09/21 00:24:55;;;;;;;1999.90;999.90;;;9.80;99.90;;;;;;5185040;28;20032;-73
2022/09/21 00:27:28;;;;;;;1999.90;999.90;;;9.50;99.90;;;;;;5184732;28;20049;-73
2022/09/21 00:30:02;;;;;;;1999.90;999.90;;;9.60;99.90;;;;;;5185370;28;20029;-74
2022/09/21 00:32:35;;;;;;;1999.90;999.90;;;9.90;99.90;;;;;;5185359;28;20113;-74
2022/09/21 00:35:06;;;;;;;1999.90;999.90;;;9.70;99.90;;;;;;5185191;28;20493;-73
2022/09/21 00:37:37;;;;;;;1999.90;999.90;;;9.60;99.90;;;;;;5184883;28;20470;-73
2022/09/21 00:40:08;;;;;;;1999.90;999.90;;;9.70;99.90;;;;;;5170986;28;20068;-73
2022/09/21 00:42:39;;;;;;;1999.90;999.90;;;9.70;99.90;;;;;;5188877;28;20026;-73
2022/09/21 00:45:19;;;;;;;1999.90;999.90;;;9.80;99.90;;;;;;5188725;28;20033;-74
2022/09/21 00:47:51;;;;;;;1999.90;999.90;;;9.70;99.90;;;;;;5188805;28;20076;-74
2022/09/21 00:50:23;;;;;;;1999.90;999.90;;;9.50;99.90;;;;;;5188669;28;20124;-73
2022/09/21 00:52:56;;;;;;;1999.90;999.90;;;9.70;99.90;;;;;;5188619;28;20022;-73
2022/09/21 00:55:32;;;;;;;1999.90;999.90;;;9.70;99.90;;;;;;5188527;28;20025;-74
2022/09/21 00:58:12;;;;;;;1999.90;999.90;;;9.60;99.90;;;;;;5188601;28;20010;-74
2022/09/21 01:00:42;;;;;;;1999.90;999.90;;;9.50;99.90;;;;;;5188706;28;20092;-74
2022/09/21 01:03:13;;;;;;;1999.90;999.90;;;9.30;99.90;;;;;;5188424;28;20628;-74
2022/09/21 01:05:44;;;;;;;1999.90;999.90;;;9.50;99.90;;;;;;5188205;28;20108;-73
2022/09/21 01:08:16;;;;;;;1999.90;999.90;;;9.40;99.90;;;;;;5188150;28;20053;-74
2022/09/21 01:11:00;;;;;;;1999.90;999.90;;;9.40;99.90;;;;;;5188121;28;20033;-74
2022/09/21 01:13:37;;;;;;;1999.90;999.90;;;9.40;99.90;;;;;;5188429;28;20512;-74
2022/09/21 01:16:29;;;;;;;1999.90;999.90;;;9.40;99.90;;;;;;5188251;28;20036;-74
2022/09/21 01:19:12;;;;;;;1999.90;999.90;;;9.30;99.90;;;;;;5170563;28;20061;-74
2022/09/21 01:22:10;;;;;;;1999.90;999.90;;;9.10;99.90;;;;;;5170601;28;20048;-74
2022/09/21 01:25:06;;;;;;;1999.90;999.90;;;9.40;99.90;;;;;;5187876;28;20057;-74
2022/09/21 01:28:02;;;;;;;1999.90;999.90;;;9.10;99.90;;;;;;5188082;28;20045;-73
2022/09/21 01:30:35;;;;;;;1999.90;999.90;;;9.20;99.90;;;;;;5187797;28;20083;-73
2022/09/21 01:33:12;;;;;;;1999.90;999.90;;;9.10;99.90;;;;;;5187861;28;20044;-74
2022/09/21 01:35:48;;;;;;;1999.90;999.90;;;9.00;99.90;;;;;;5187957;28;20022;-74
2022/09/21 01:38:26;;;;;;;1999.90;999.90;;;9.10;99.90;;;;;;5187533;28;20042;-74
2022/09/21 01:41:02;;;;;;;1999.90;999.90;;;9.10;99.90;;;;;;5187972;28;20033;-73
2022/09/21 01:43:41;;;;;;;1999.90;999.90;;;9.20;99.90;;;;;;5187911;28;20026;-73
2022/09/21 01:46:16;;;;;;;1999.90;999.90;;;9.10;99.90;;;;;;5187809;28;20470;-74
2022/09/21 01:48:55;;;;;;;1999.90;999.90;;;9.20;99.90;;;;;;5187200;28;20029;-73
2022/09/21 01:51:28;;;;;;;1999.90;999.90;;;9.10;99.90;;;;;;5187519;28;20030;-74
2022/09/21 01:54:08;;;;;;;1999.90;999.90;;;9.00;99.90;;;;;;5187510;28;20022;-74
2022/09/21 01:56:49;;;;;;;1999.90;999.90;;;8.90;99.90;;;;;;5187538;28;20041;-74
2022/09/21 01:59:20;;;;;;;1999.90;999.90;;;9.00;99.90;;;;;;5187370;28;20500;-73
2022/09/21 02:01:57;;;;;;;1999.90;999.90;;;8.90;99.90;;;;;;5169422;28;20050;-74
2022/09/21 02:04:28;;;;;;;1999.90;999.90;;;8.90;99.90;;;;;;5187358;28;20525;-73
2022/09/21 02:07:00;;;;;;;1999.90;999.90;;;8.90;99.90;;;;;;5169608;28;20128;-73
2022/09/21 02:09:31;;;;;;;1999.90;999.90;;;8.90;99.90;;;;;;5187101;28;20021;-74
2022/09/21 02:12:04;;;;;;;1999.90;999.90;;;8.80;99.90;;;;;;5187171;28;20433;-73
2022/09/21 02:14:36;;;;;;;1999.90;999.90;;;8.90;99.90;;;;;;5187046;28;20070;-74
2022/09/21 02:17:20;;;;;;;1999.90;999.90;;;8.80;99.90;;;;;;5187179;28;20482;-73
2022/09/21 02:20:12;;;;;;;1999.90;999.90;;;8.80;99.90;;;;;;5186994;28;20026;-74
2022/09/21 02:23:14;;;;;;;1999.90;999.90;;;8.80;99.90;;;;;;5169401;28;20089;-73
2022/09/21 02:25:53;;;;;;;1999.90;999.90;;;8.80;99.90;;;;;;5186479;28;20081;-74
2022/09/21 02:28:29;;;;;;;1999.90;999.90;;;8.80;99.90;;;;;;5169366;28;20028;-74
2022/09/21 02:31:15;;;;;;;1999.90;999.90;;;8.60;99.90;;;;;;5187060;28;20084;-74
2022/09/21 02:34:15;;;;;;;1999.90;999.90;;;8.70;99.90;;;;;;5186907;28;20036;-74
2022/09/21 02:37:04;;;;;;;1999.90;999.90;;;8.50;99.90;;;;;;5160026;28;20180;-74
2022/09/21 02:39:49;;;;;;;1999.90;999.90;;;8.70;99.90;;;;;;5186563;28;20268;-74
2022/09/21 02:42:26;;;;;;;1999.90;999.90;;;8.80;99.90;;;;;;5186648;28;20436;-74
2022/09/21 02:45:07;;;;;;;1999.90;999.90;;;8.80;99.90;;;;;;5186645;28;20046;-73
2022/09/21 02:47:53;;;;;;;1999.90;999.90;;;8.70;99.90;;;;;;5168634;28;20030;-74
2022/09/21 02:50:39;;;;;;;1999.90;999.90;;;8.60;99.90;;;;;;5186650;28;20704;-73
2022/09/21 02:53:11;;;;;;;1999.90;999.90;;;8.70;99.90;;;;;;5186350;28;20025;-73
2022/09/21 02:55:44;;;;;;;1999.90;999.90;;;8.80;99.90;;;;;;5168273;28;20549;-74
2022/09/21 02:58:15;;;;;;;1999.90;999.90;;;8.70;99.90;;;;;;5168769;28;20512;-74
2022/09/21 03:00:46;;;;;;;1999.90;999.90;;;8.70;99.90;;;;;;5167853;28;20041;-74
2022/09/21 03:03:22;;;;;;;1999.90;999.90;;;8.50;99.90;;;;;;5186057;28;20381;-73
2022/09/21 03:05:54;;;;;;;1999.90;999.90;;;8.50;99.90;;;;;;5186159;28;20038;-73
2022/09/21 03:08:25;;;;;;;1999.90;999.90;;;8.50;99.90;;;;;;5185895;28;20068;-74
2022/09/21 03:10:56;;;;;;;1999.90;999.90;;;8.60;99.90;;;;;;5185921;28;20465;-73
2022/09/21 03:13:27;;;;;;;1999.90;999.90;;;8.60;99.90;;;;;;5186106;28;20458;-74
2022/09/21 03:16:01;;;;;;;1999.90;999.90;;;8.60;99.90;;;;;;5168418;28;20044;-73
2022/09/21 03:18:33;;;;;;;1999.90;999.90;;;8.60;99.90;;;;;;5186319;28;20010;-74
2022/09/21 03:21:05;;;;;;;1999.90;999.90;;;8.50;99.90;;;;;;5168228;28;20508;-73
2022/09/21 03:23:35;;;;;;;1999.90;999.90;;;8.70;99.90;;;;;;5168236;28;20045;-74
2022/09/21 03:26:07;;;;;;;1999.90;999.90;;;8.60;99.90;;;;;;5185420;28;20088;-73
2022/09/21 03:28:38;;;;;;;1999.90;999.90;;;8.40;99.90;;;;;;5185794;28;20065;-74
2022/09/21 03:31:09;;;;;;;1999.90;999.90;;;8.50;99.90;;;;;;5185912;28;20073;-74
2022/09/21 03:33:40;;;;;;;1999.90;999.90;;;8.50;99.90;;;;;;5185543;28;20532;-74
2022/09/21 03:36:11;;;;;;;1999.90;999.90;;;8.60;99.90;;;;;;5186027;28;20441;-73
2022/09/21 03:38:42;;;;;;;1999.90;999.90;;;8.60;99.90;;;;;;5168023;28;20064;-74
2022/09/21 03:41:14;;;;;;;1999.90;999.90;;;8.60;99.90;;;;;;5185448;28;20084;-73
2022/09/21 03:43:44;;;;;;;1999.90;999.90;;;8.70;99.90;;;;;;5185432;28;20030;-73
2022/09/21 03:46:16;;;;;;;1999.90;999.90;;;8.40;99.90;;;;;;5185814;28;20030;-74
2022/09/21 03:48:47;;;;;;;1999.90;999.90;;;8.40;99.90;;;;;;5185630;28;20036;-73
2022/09/21 03:51:18;;;;;;;1999.90;999.90;;;8.40;99.90;;;;;;5185795;28;20752;-76
2022/09/21 03:53:48;;;;;;;1999.90;999.90;;;8.40;99.90;;;;;;5168393;28;20034;-74
2022/09/21 03:56:19;;;;;;;1999.90;999.90;;;8.50;99.90;;;;;;5185915;28;20030;-75
2022/09/21 03:58:50;;;;;;;1999.90;999.90;;;8.50;99.90;;;;;;5201164;28;20128;-74
2022/09/21 04:01:21;;;;;;;1999.90;999.90;;;8.60;99.90;;;;;;5175389;28;20030;-74
2022/09/21 04:03:52;;;;;;;1999.90;999.90;;;8.40;99.90;;;;;;5190656;28;20478;-73
2022/09/21 04:06:23;;;;;;;1999.90;999.90;;;8.50;99.90;;;;;;5184472;28;20049;-75
2022/09/21 04:08:55;;;;;;;1999.90;999.90;;;8.40;99.90;;;;;;5197214;28;20021;-75
2022/09/21 04:11:26;;;;;;;1999.90;999.90;;;8.50;99.90;;;;;;5200029;28;20018;-74
2022/09/21 04:13:57;;;;;;;1999.90;999.90;;;8.30;99.90;;;;;;5182569;28;20037;-76
2022/09/21 04:16:28;;;;;;;1999.90;999.90;;;8.20;99.90;;;;;;5181481;28;20025;-74
2022/09/21 04:18:59;;;;;;;1999.90;999.90;;;8.30;99.90;;;;;;5195073;28;20492;-75
2022/09/21 04:21:30;;;;;;;1999.90;999.90;;;8.30;99.90;;;;;;5198883;28;20030;-75
2022/09/21 04:24:01;;;;;;;1999.90;999.90;;;8.20;99.90;;;;;;5176927;28;20026;-73
2022/09/21 04:26:33;;;;;;;1999.90;999.90;;;8.30;99.90;;;;;;5198811;28;20059;-76
2022/09/21 04:29:05;;;;;;;1999.90;999.90;;;8.00;99.90;;;;;;5180699;28;20049;-74
2022/09/21 04:31:36;;;;;;;1999.90;999.90;;;8.00;99.90;;;;;;5206175;28;20060;-75
2022/09/21 04:34:10;;;;;;;1999.90;999.90;;;8.20;99.90;;;;;;5198570;28;20052;-74
2022/09/21 04:36:42;;;;;;;1999.90;999.90;;;8.20;99.90;;;;;;5198870;28;20410;-73
2022/09/21 04:39:13;;;;;;;1999.90;999.90;;;8.30;99.90;;;;;;5201997;28;20049;-75
2022/09/21 04:41:44;;;;;;;1999.90;999.90;;;8.10;99.90;;;;;;5206145;28;20501;-74
2022/09/21 04:44:17;;;;;;;1999.90;999.90;;;8.20;99.90;;;;;;5183044;28;20034;-75
2022/09/21 04:46:48;;;;;;;1999.90;999.90;;;8.50;99.90;;;;;;5177236;28;20116;-73
2022/09/21 04:49:19;;;;;;;1999.90;999.90;;;8.30;99.90;;;;;;5200262;28;20052;-74
2022/09/21 04:51:49;;;;;;;1999.90;999.90;;;8.60;99.90;;;;;;5203756;28;20017;-72
2022/09/21 04:54:20;;;;;;;1999.90;999.90;;;8.70;99.90;;;;;;5202409;28;20029;-73
2022/09/21 04:56:51;;;;;;;1999.90;999.90;;;8.70;99.90;;;;;;5197433;28;20729;-73
2022/09/21 04:59:22;;;;;;;1999.90;999.90;;;8.90;99.90;;;;;;5176905;28;20025;-76
2022/09/21 05:01:53;;;;;;;1999.90;999.90;;;8.90;99.90;;;;;;5197778;28;20037;-75
2022/09/21 05:04:24;;;;;;;1999.90;999.90;;;9.30;99.90;;;;;;5193290;28;20034;-73
2022/09/21 05:06:57;;;;;;;1999.90;999.90;;;9.20;99.90;;;;;;5196041;28;20036;-72
2022/09/21 05:12:17;;;;;;;1999.90;999.90;;;9.70;99.90;;;;;;5201852;28;20025;-73
2022/09/21 05:14:48;;;;;;;1999.90;999.90;;;9.60;99.90;;;;;;5190953;28;20477;-75
2022/09/21 05:17:21;;;;;;;1999.90;999.90;;;9.80;99.90;;;;;;5208679;28;20026;-75
2022/09/21 05:19:52;;;;;;;1999.90;999.90;;;9.80;99.90;;;;;;5190793;28;20040;-73
2022/09/21 05:22:23;;;;;;;1999.90;999.90;;;10.20;99.90;;;;;;5208272;28;20041;-72
2022/09/21 05:24:54;;;;;;;1999.90;999.90;;;10.60;99.90;;;;;;5189458;28;20025;-75
2022/09/21 05:27:25;;;;;;;1999.90;999.90;;;10.40;99.90;;;;;;5208343;28;20507;-74
2022/09/21 05:29:56;;;;;;;1999.90;999.90;;;10.60;99.90;;;;;;5208495;28;20017;-75
2022/09/21 05:32:34;;;;;;;1999.90;999.90;;;10.60;99.90;;;;;;5208935;28;20029;-76
2022/09/21 05:35:35;;;;;;;1999.90;999.90;;;11.40;99.90;;;;;;5208481;28;20489;-75
2022/09/21 05:38:18;;;;;;;1999.90;999.90;;;11.30;99.90;;;;;;5208277;28;20026;-75
2022/09/21 05:40:49;;;;;;;1999.90;999.90;;;11.30;99.90;;;;;;5208299;28;20033;-74
2022/09/21 05:43:20;;;;;;;1999.90;999.90;;;11.60;99.90;;;;;;5208403;28;20021;-75
2022/09/21 05:46:06;;;;;;;1999.90;999.90;;;12.00;99.90;;;;;;5208197;28;20535;-75
2022/09/21 05:48:41;;;;;;;1999.90;999.90;;;12.60;99.90;;;;;;5208128;28;20025;-75
2022/09/21 05:51:33;;;;;;;1999.90;999.90;;;13.20;99.90;;;;;;5207979;28;20159;-74
2022/09/21 05:54:21;;;;;;;1999.90;999.90;;;13.30;99.90;;;;;;5207881;28;20125;-73
2022/09/21 05:57:18;;;;;;;1999.90;999.90;;;13.80;99.90;;;;;;5195690;28;20523;-73
2022/09/21 05:59:51;;;;;;;1999.90;999.90;;;14.00;99.90;;;;;;5186484;28;20034;-73
2022/09/21 06:02:31;;;;;;;1999.90;999.90;;;14.40;99.90;;;;;;5186598;28;20042;-73
2022/09/21 06:05:09;;;;;;;1999.90;999.90;;;14.60;99.90;;;;;;5186510;28;20096;-74
2022/09/21 06:07:41;;;;;;;1999.90;999.90;;;14.80;99.90;;;;;;5186365;28;20038;-73
2022/09/21 06:10:12;;;;;;;1999.90;999.90;;;14.80;99.90;;;;;;5186139;28;20474;-74
2022/09/21 06:12:43;;;;;;;1999.90;999.90;;;14.90;99.90;;;;;;5186516;28;20064;-73
2022/09/21 06:15:15;;;;;;;1999.90;999.90;;;15.40;99.90;;;;;;5186596;28;20057;-73
2022/09/21 06:17:45;;;;;;;1999.90;999.90;;;15.60;99.90;;;;;;5185982;28;20022;-73
2022/09/21 06:20:17;;;;;;;1999.90;999.90;;;15.80;99.90;;;;;;5186137;28;20436;-73
2022/09/21 06:22:47;;;;;;;1999.90;999.90;;;15.70;99.90;;;;;;5185880;28;20026;-73
2022/09/21 06:25:19;;;;;;;1999.90;999.90;;;15.60;99.90;;;;;;5185702;28;20034;-73
2022/09/21 06:27:49;;;;;;;1999.90;999.90;;;17.00;99.90;;;;;;5185657;28;20061;-73
2022/09/21 06:30:20;;;;;;;1999.90;999.90;;;17.60;99.90;;;;;;5185813;28;20831;-73
2022/09/21 06:32:51;;;;;;;1999.90;999.90;;;17.90;99.90;;;;;;5193753;28;20409;-74
2022/09/21 06:35:22;;;;;;;1999.90;999.90;;;18.20;99.90;;;;;;5195883;28;20068;-74
2022/09/21 06:38:00;;;;;;;1999.90;999.90;;;18.40;99.90;;;;;;5198759;28;20033;-74
2022/09/21 06:40:33;;;;;;;1999.90;999.90;;;18.60;99.90;;;;;;5201826;28;20051;-73
2022/09/21 06:43:05;;;;;;;1999.90;999.90;;;18.50;99.90;;;;;;5205640;28;20037;-73
2022/09/21 06:45:35;;;;;;;1999.90;999.90;;;18.70;99.90;;;;;;5206057;28;20040;-74
2022/09/21 06:48:06;;;;;;;1999.90;999.90;;;18.70;99.90;;;;;;5202614;28;20072;-73
2022/09/21 06:50:37;;;;;;;1999.90;999.90;;;18.80;99.90;;;;;;5205764;28;20095;-73
2022/09/21 06:53:08;;;;;;;1999.90;999.90;;;18.90;99.90;;;;;;5205885;28;20026;-73
2022/09/21 06:55:39;;;;;;;1999.90;999.90;;;18.90;99.90;;;;;;5205525;28;20034;-73
2022/09/21 06:58:10;;;;;;;1999.90;999.90;;;19.10;99.90;;;;;;5205498;28;20517;-73
2022/09/21 07:00:40;;;;;;;1999.90;999.90;;;18.90;99.90;;;;;;5190520;28;20489;-73
2022/09/21 07:03:12;;;;;;;1999.90;999.90;;;19.20;99.90;;;;;;5185517;28;20137;-73
2022/09/21 07:05:45;;;;;;;1999.90;999.90;;;19.10;99.90;;;;;;5185582;28;20017;-73
2022/09/21 07:08:16;;;;;;;1999.90;999.90;;;19.20;99.90;;;;;;5185390;28;20092;-73
2022/09/21 07:10:47;;;;;;;1999.90;999.90;;;19.30;99.90;;;;;;5185563;28;20781;-73
2022/09/21 07:13:18;;;;;;;1999.90;999.90;;;19.50;99.90;;;;;;5151753;28;20022;-73
2022/09/21 07:15:49;;;;;;;1999.90;999.90;;;19.30;99.90;;;;;;5185304;28;20077;-72
2022/09/21 07:18:21;;;;;;;1999.90;999.90;;;19.10;99.90;;;;;;5185524;28;20040;-72
2022/09/21 07:20:51;;;;;;;1999.90;999.90;;;18.80;99.90;;;;;;5185173;28;20037;-73
2022/09/21 07:23:22;;;;;;;1999.90;999.90;;;19.40;99.90;;;;;;5184844;28;20548;-73
2022/09/21 07:25:53;;;;;;;1999.90;999.90;;;19.80;99.90;;;;;;5184797;28;20062;-72
2022/09/21 07:28:24;;;;;;;1999.90;999.90;;;19.60;99.90;;;;;;5185136;28;20025;-73
2022/09/21 07:30:56;;;;;;;1999.90;999.90;;;19.20;99.90;;;;;;5185212;28;20052;-73
2022/09/21 07:33:27;;;;;;;1999.90;999.90;;;19.10;99.90;;;;;;5185182;28;20026;-73
2022/09/21 07:35:59;;;;;;;1999.90;999.90;;;19.60;99.90;;;;;;5185373;28;20033;-73
2022/09/21 07:38:34;;;;;;;1999.90;999.90;;;19.70;99.90;;;;;;5185071;28;20092;-73
2022/09/21 07:41:09;;;;;;;1999.90;999.90;;;19.60;99.90;;;;;;5185067;28;20104;-72
2022/09/21 07:43:40;;;;;;;1999.90;999.90;;;19.50;99.90;;;;;;5184865;28;20064;-72
2022/09/21 07:46:13;;;;;;;1999.90;999.90;;;19.40;99.90;;;;;;5184881;28;20034;-72
2022/09/21 07:48:44;;;;;;;1999.90;999.90;;;19.40;99.90;;;;;;5184712;28;20057;-73
2022/09/21 07:51:15;;;;;;;1999.90;999.90;;;19.40;99.90;;;;;;5185134;28;20561;-73
2022/09/21 07:53:46;;;;;;;1999.90;999.90;;;19.50;99.90;;;;;;5184804;28;20457;-73
2022/09/21 07:56:17;;;;;;;1999.90;999.90;;;19.30;99.90;;;;;;5184951;28;20088;-73
2022/09/21 07:59:06;;;;;;;1999.90;999.90;;;19.30;99.90;;;;;;5185058;28;20022;-73
2022/09/21 08:01:41;;;;;;;1999.90;999.90;;;19.40;99.90;;;;;;5185011;28;20042;-73
2022/09/21 08:04:18;;;;;;;1999.90;999.90;;;19.50;99.90;;;;;;5184742;28;20030;-73
2022/09/21 08:06:54;;;;;;;1999.90;999.90;;;19.50;99.90;;;;;;5184574;28;20167;-73
2022/09/21 08:09:28;;;;;;;1999.90;999.90;;;19.50;99.90;;;;;;5184705;28;20026;-73
2022/09/21 08:12:01;;;;;;;1999.90;999.90;;;19.30;99.90;;;;;;5166837;28;20025;-73
2022/09/21 08:14:32;;;;;;;1999.90;999.90;;;19.40;99.90;;;;;;5184726;28;20532;-72
2022/09/21 08:17:09;;;;;;;1999.90;999.90;;;19.60;99.90;;;;;;5184663;28;20080;-72
2022/09/21 08:19:40;;;;;;;1999.90;999.90;;;20.40;99.90;;;;;;5184583;28;20033;-73
2022/09/21 08:22:13;;;;;;;1999.90;999.90;;;20.60;99.90;;;;;;5184475;28;20038;-73
2022/09/21 08:24:44;;;;;;;1999.90;999.90;;;20.60;99.90;;;;;;5203838;28;20087;-73
2022/09/21 08:27:16;;;;;;;1999.90;999.90;;;20.30;99.90;;;;;;5204495;28;20124;-73
2022/09/21 08:29:49;;;;;;;1999.90;999.90;;;19.90;99.90;;;;;;5204783;28;20050;-73
2022/09/21 08:32:22;;;;;;;1999.90;999.90;;;20.00;99.90;;;;;;5204605;28;20037;-72
2022/09/21 08:34:53;;;;;;;1999.90;999.90;;;20.50;99.90;;;;;;5204653;28;20088;-73
2022/09/21 08:37:24;;;;;;;1999.90;999.90;;;20.10;99.90;;;;;;5204825;28;20030;-73
2022/09/21 08:39:55;;;;;;;1999.90;999.90;;;19.60;99.90;;;;;;5204587;28;20033;-72
2022/09/21 08:42:48;;;;;;;1999.90;999.90;;;19.60;99.90;;;;;;5204858;28;20025;-73
2022/09/21 08:45:21;;;;;;;1999.90;999.90;;;20.00;99.90;;;;;;5204687;28;20359;-73
2022/09/21 08:47:57;;;;;;;1999.90;999.90;;;20.00;99.90;;;;;;5204430;28;20030;-72
2022/09/21 08:50:38;;;;;;;1999.90;999.90;;;20.40;99.90;;;;;;5204854;28;20034;-73
2022/09/21 08:53:28;;;;;;;1999.90;999.90;;;20.70;99.90;;;;;;5204738;28;20037;-74
2022/09/21 08:56:01;;;;;;;1999.90;999.90;;;20.50;99.90;;;;;;5204608;28;20507;-73
2022/09/21 08:58:32;;;;;;;1999.90;999.90;;;20.70;99.90;;;;;;5204786;28;20022;-75
2022/09/21 09:01:18;;;;;;;1999.90;999.90;;;20.60;99.90;;;;;;5207683;28;20110;-74
2022/09/21 09:03:54;;;;;;;1999.90;999.90;;;20.50;99.90;;;;;;5208428;28;20064;-74
2022/09/21 09:06:25;;;;;;;1999.90;999.90;;;20.50;99.90;;;;;;5208275;28;20385;-74
2022/09/21 09:09:31;;;;;;;1999.90;999.90;;;20.70;99.90;;;;;;5208190;28;20033;-72
2022/09/21 09:12:24;;;;;;;1999.90;999.90;;;20.80;99.90;;;;;;5176468;28;20035;-75
2022/09/21 09:15:26;;;;;;;1999.90;999.90;;;20.80;99.90;;;;;;5207971;28;20025;-75
2022/09/21 09:18:14;;;;;;;1999.90;999.90;;;20.40;99.90;;;;;;5207958;28;20029;-75
2022/09/21 09:20:55;;;;;;;1999.90;999.90;;;20.60;99.90;;;;;;5207880;28;20045;-75
2022/09/21 09:23:37;;;;;;;1999.90;999.90;;;20.80;99.90;;;;;;5207855;28;20045;-75
2022/09/21 09:26:19;;;;;;;1999.90;999.90;;;21.10;99.90;;;;;;5207372;28;20409;-75
2022/09/21 09:29:10;;;;;;;1999.90;999.90;;;20.20;99.90;;;;;;5207830;28;20033;-75
2022/09/21 09:31:42;;;;;;;1999.90;999.90;;;20.50;99.90;;;;;;5207745;28;20021;-75
2022/09/21 09:34:21;;;;;;;1999.90;999.90;;;20.20;99.90;;;;;;5207677;28;20025;-75
2022/09/21 09:37:07;;;;;;;1999.90;999.90;;;20.10;99.90;;;;;;5207742;28;20384;-75
2022/09/21 09:39:41;;;;;;;1999.90;999.90;;;20.70;99.90;;;;;;5207912;28;20044;-75
2022/09/21 09:42:23;;;;;;;1999.90;999.90;;;20.70;99.90;;;;;;5207722;28;20048;-75
2022/09/21 09:45:26;;;;;;;1999.90;999.90;;;20.40;99.90;;;;;;5207684;28;20387;-73
2022/09/21 09:48:08;;;;;;;1999.90;999.90;;;20.50;99.90;;;;;;5207627;28;20037;-75
2022/09/21 09:50:42;;;;;;;1999.90;999.90;;;20.60;99.90;;;;;;5207434;28;20030;-74
2022/09/21 09:53:22;;;;;;;1999.90;999.90;;;21.40;99.90;;;;;;5207311;28;20022;-73
2022/09/21 09:56:01;;;;;;;1999.90;999.90;;;21.30;99.90;;;;;;5207132;28;20030;-74
2022/09/21 09:58:35;;;;;;;1999.90;999.90;;;21.40;99.90;;;;;;5207243;28;20034;-75
2022/09/21 10:01:09;;;;;;;1999.90;999.90;;;21.20;99.90;;;;;;5207526;28;20048;-72
2022/09/21 10:03:43;;;;;;;1999.90;999.90;;;20.80;99.90;;;;;;5207325;28;20029;-74
2022/09/21 10:06:30;;;;;;;1999.90;999.90;;;20.40;99.90;;;;;;5206763;28;20528;-73
2022/09/21 10:09:23;;;;;;;1999.90;999.90;;;20.80;99.90;;;;;;5207176;28;20079;-73
2022/09/21 10:12:14;;;;;;;1999.90;999.90;;;21.60;99.90;;;;;;5206606;28;20116;-71
2022/09/21 10:14:50;;;;;;;1999.90;999.90;;;21.60;99.90;;;;;;5206935;28;20104;-72
2022/09/21 10:17:24;;;;;;;1999.90;999.90;;;21.00;99.90;;;;;;5206908;28;20036;-72
2022/09/21 10:19:59;;;;;;;1999.90;999.90;;;21.40;99.90;;;;;;5207114;28;20028;-73
2022/09/21 10:22:30;;;;;;;1999.90;999.90;;;21.90;99.90;;;;;;5207089;28;20120;-72
2022/09/21 10:25:04;;;;;;;1999.90;999.90;;;22.30;99.90;;;;;;5206784;28;20105;-71
2022/09/21 10:27:41;;;;;;;1999.90;999.90;;;22.40;99.90;;;;;;5206532;28;20139;-72
2022/09/21 10:30:40;;;;;;;1999.90;999.90;;;22.30;99.90;;;;;;5206623;28;20037;-72
2022/09/21 10:33:21;;;;;;;1999.90;999.90;;;22.80;99.90;;;;;;5202888;28;20045;-71
2022/09/21 10:35:52;;;;;;;1999.90;999.90;;;22.00;99.90;;;;;;5206293;28;20041;-72
2022/09/21 10:38:29;;;;;;;1999.90;999.90;;;21.60;99.90;;;;;;5206300;28;20025;-71
2022/09/21 10:41:00;;;;;;;1999.90;999.90;;;21.60;99.90;;;;;;5206059;28;20052;-71
2022/09/21 10:43:40;;;;;;;1999.90;999.90;;;21.40;99.90;;;;;;5206075;28;20025;-71
2022/09/21 10:46:12;;;;;;;1999.90;999.90;;;21.20;99.90;;;;;;5206230;28;20124;-71
2022/09/21 10:48:46;;;;;;;1999.90;999.90;;;21.70;99.90;;;;;;5205957;28;20025;-73
2022/09/21 10:51:28;;;;;;;1999.90;999.90;;;21.70;99.90;;;;;;5205964;28;20030;-71
2022/09/21 10:53:59;;;;;;;1999.90;999.90;;;21.30;99.90;;;;;;5205555;28;20044;-71
2022/09/21 10:56:29;;;;;;;1999.90;999.90;;;21.60;99.90;;;;;;5193423;28;20038;-72
2022/09/21 10:59:34;;;;;;;1999.90;999.90;;;21.30;99.90;;;;;;5185381;28;20432;-71
2022/09/21 11:02:33;;;;;;;1999.90;999.90;;;21.20;99.90;;;;;;5125814;28;20053;-71
2022/09/21 11:05:14;;;;;;;1999.90;999.90;;;21.50;99.90;;;;;;5185423;28;20034;-71
2022/09/21 11:08:20;;;;;;;1999.90;999.90;;;21.20;99.90;;;;;;5185296;28;20268;-70
2022/09/21 11:11:13;;;;;;;1999.90;999.90;;;21.10;99.90;;;;;;5155267;28;20400;-70
2022/09/21 11:14:10;;;;;;;1999.90;999.90;;;20.90;99.90;;;;;;5185403;28;20249;-71
2022/09/21 11:16:52;;;;;;;1999.90;999.90;;;20.80;99.90;;;;;;5185695;28;20042;-70
2022/09/21 11:19:55;;;;;;;1999.90;999.90;;;20.90;99.90;;;;;;5185572;28;20033;-71
2022/09/21 11:22:58;;;;;;;1999.90;999.90;;;20.90;99.90;;;;;;5184601;28;20034;-71
2022/09/21 11:25:58;;;;;;;1999.90;999.90;;;21.20;99.90;;;;;;5184944;28;20097;-71
2022/09/21 11:28:52;;;;;;;1999.90;999.90;;;21.30;99.90;;;;;;5185103;28;20087;-71
2022/09/21 11:31:58;;;;;;;1999.90;999.90;;;21.70;99.90;;;;;;5185383;28;20026;-71
2022/09/21 11:35:05;;;;;;;1999.90;999.90;;;22.30;99.90;;;;;;5185068;28;20033;-70
2022/09/21 11:37:49;;;;;;;1999.90;999.90;;;22.30;99.90;;;;;;5161040;28;20093;-71
2022/09/21 11:40:54;;;;;;;1999.90;999.90;;;22.50;99.90;;;;;;5184969;28;20026;-71
2022/09/21 11:43:58;;;;;;;1999.90;999.90;;;22.50;99.90;;;;;;5185054;28;20022;-72
2022/09/21 11:47:03;;;;;;;1999.90;999.90;;;22.90;99.90;;;;;;5184836;28;20029;-71
2022/09/21 11:50:06;;;;;;;1999.90;999.90;;;22.00;99.90;;;;;;5184839;28;20647;-71
2022/09/21 11:52:58;;;;;;;1999.90;999.90;;;21.70;99.90;;;;;;5141253;28;20050;-71
2022/09/21 11:55:43;;;;;;;1999.90;999.90;;;21.60;99.90;;;;;;5184667;28;20413;-71
2022/09/21 11:59:05;;;;;;;1999.90;999.90;;;21.40;99.90;;;;;;5184761;28;20783;-71
2022/09/21 12:01:56;;;;;;;1999.90;999.90;;;21.40;99.90;;;;;;5151306;28;20564;-72
2022/09/21 12:04:46;;;;;;;1999.90;999.90;;;21.40;99.90;;;;;;5184684;28;20030;-71
2022/09/21 12:07:42;;;;;;;1999.90;999.90;;;21.00;99.90;;;;;;5184756;28;20038;-72
2022/09/21 12:10:37;;;;;;;1999.90;999.90;;;20.90;99.90;;;;;;5184576;28;20022;-71
2022/09/21 12:13:36;;;;;;;1999.90;999.90;;;21.00;99.90;;;;;;5184564;28;20414;-71
2022/09/21 12:16:16;;;;;;;1999.90;999.90;;;21.00;99.90;;;;;;5144682;28;20045;-69
2022/09/21 12:19:13;;;;;;;1999.90;999.90;;;21.20;99.90;;;;;;5184874;28;20458;-73
2022/09/21 12:21:48;;;;;;;1999.90;999.90;;;21.40;99.90;;;;;;5184502;28;20049;-75
2022/09/21 12:24:31;;;;;;;1999.90;999.90;;;21.40;99.90;;;;;;5184388;28;20030;-72
2022/09/21 12:27:10;;;;;;;1999.90;999.90;;;20.90;99.90;;;;;;5184595;28;20057;-75
2022/09/21 12:29:46;;;;;;;1999.90;999.90;;;20.90;99.90;;;;;;5184696;28;20085;-74
2022/09/21 12:32:51;;;;;;;1999.90;999.90;;;20.50;99.90;;;;;;5184380;28;20022;-76
2022/09/21 12:35:49;;;;;;;1999.90;999.90;;;20.50;99.90;;;;;;5188411;28;20466;-74
2022/09/21 12:38:31;;;;;;;1999.90;999.90;;;20.60;99.90;;;;;;5188366;28;20065;-74
2022/09/21 12:41:20;;;;;;;1999.90;999.90;;;20.40;99.90;;;;;;5188705;28;20145;-74
2022/09/21 12:43:54;;;;;;;1999.90;999.90;;;20.30;99.90;;;;;;5188638;28;20080;-74
2022/09/21 12:46:35;;;;;;;1999.90;999.90;;;20.30;99.90;;;;;;5188227;28;20030;-76
2022/09/21 12:49:16;;;;;;;1999.90;999.90;;;20.30;99.90;;;;;;5188164;28;20026;-74
2022/09/21 12:51:55;;;;;;;1999.90;999.90;;;20.10;99.90;;;;;;5188088;28;20072;-74
2022/09/21 12:54:26;;;;;;;1999.90;999.90;;;20.30;99.90;;;;;;5188003;28;20034;-74
2022/09/21 12:57:18;;;;;;;1999.90;999.90;;;20.40;99.90;;;;;;5187702;28;20548;-74
2022/09/21 13:00:11;;;;;;;1999.90;999.90;;;20.30;99.90;;;;;;5188029;28;20045;-75